createdAt,value
2022-12-05T00:00:07.049Z,12.89
2022-12-05T00:02:33.886Z,13.31
2022-12-05T00:05:01.063Z,13.26
2022-12-05T00:07:28.736Z,13.50
2022-12-05T00:10:04.993Z,12.97
2022-12-05T00:12:32.131Z,13.20
2022-12-05T00:14:58.894Z,13.58
2022-12-05T00:17:29.158Z,13.99
2022-12-05T00:19:57.078Z,13.96
2022-12-05T00:22:24.281Z,14.04
2022-12-05T00:24:52.910Z,13.96
2022-12-05T00:27:21.692Z,13.47
2022-12-05T00:29:48.788Z,13.10
2022-12-05T00:32:15.599Z,12.54
2022-12-05T00:34:42.512Z,12.35
2022-12-05T00:37:09.170Z,12.02
2022-12-05T00:39:36.053Z,11.86
2022-12-05T00:42:08.945Z,12.22
2022-12-05T00:44:36.623Z,13.05
2022-12-05T00:47:03.683Z,13.38
2022-12-05T00:49:30.374Z,13.49
2022-12-05T00:51:57.184Z,13.79
2022-12-05T00:54:23.896Z,13.67
2022-12-05T00:56:52.626Z,14.05
2022-12-05T00:59:23.339Z,14.03
2022-12-05T01:01:53.153Z,14.08
2022-12-05T01:04:27.320Z,13.67
2022-12-05T01:06:56.104Z,12.94
2022-12-05T01:09:23.736Z,12.85
2022-12-05T01:11:50.792Z,12.34
2022-12-05T01:14:19.640Z,12.23
2022-12-05T01:16:49.221Z,13.02
2022-12-05T01:19:24.678Z,12.63
2022-12-05T01:21:55.107Z,12.56
2022-12-05T01:24:23.206Z,12.62
2022-12-05T01:26:49.870Z,12.99
2022-12-05T01:29:18.887Z,12.83
2022-12-05T01:31:46.245Z,12.58
2022-12-05T01:34:16.697Z,13.53
2022-12-05T01:36:43.639Z,12.98
2022-12-05T01:39:11.434Z,12.57
2022-12-05T01:41:42.929Z,11.87
2022-12-05T01:44:18.209Z,11.17
2022-12-05T01:46:48.606Z,11.23
2022-12-05T01:49:42.759Z,10.90
2022-12-05T01:52:15.252Z,10.78
2022-12-05T01:54:43.725Z,10.28
2022-12-05T01:57:15.234Z,10.36
2022-12-05T01:59:49.617Z,10.43
2022-12-05T02:02:16.670Z,10.26
2022-12-05T02:04:57.210Z,10.26
2022-12-05T02:07:23.824Z,10.16
2022-12-05T02:09:51.247Z,8.86
2022-12-05T02:12:19.945Z,10.15
2022-12-05T02:14:49.537Z,10.03
2022-12-05T02:17:51.569Z,9.95
2022-12-05T02:20:56.194Z,9.94
2022-12-05T02:23:33.490Z,9.88
2022-12-05T02:26:37.870Z,9.92
2022-12-05T02:29:38.602Z,10.21
2022-12-05T02:32:41.283Z,9.62
2022-12-05T02:35:20.211Z,10.22
2022-12-05T02:38:05.798Z,10.06
2022-12-05T02:40:47.812Z,9.85
2022-12-05T02:43:39.558Z,9.92
2022-12-05T02:46:13.295Z,9.91
2022-12-05T02:48:42.651Z,9.90
2022-12-05T02:51:12.140Z,9.74
2022-12-05T02:53:42.350Z,9.72
2022-12-05T02:56:12.767Z,9.75
2022-12-05T02:58:54.223Z,9.71
2022-12-05T03:01:27.678Z,9.30
2022-12-05T03:03:57.993Z,9.66
2022-12-05T03:06:32.512Z,9.39
2022-12-05T03:09:13.809Z,9.51
2022-12-05T03:12:10.893Z,9.54
2022-12-05T03:14:43.922Z,9.78
2022-12-05T03:17:17.500Z,9.71
2022-12-05T03:20:16.642Z,9.88
2022-12-05T03:22:54.709Z,9.90
2022-12-05T03:25:25.965Z,9.60
2022-12-05T03:28:31.408Z,9.73
2022-12-05T03:31:05.085Z,9.88
2022-12-05T03:36:33.180Z,9.83
2022-12-05T03:39:10.334Z,9.85
2022-12-05T03:41:36.958Z,9.95
2022-12-05T03:44:18.209Z,9.79
2022-12-05T03:47:01.309Z,9.92
2022-12-05T03:49:40.229Z,9.16
2022-12-05T03:52:28.095Z,9.81
2022-12-05T03:55:09.081Z,9.94
2022-12-05T03:57:59.777Z,9.89
2022-12-05T04:00:31.561Z,9.82
2022-12-05T04:03:04.226Z,9.86
2022-12-05T04:06:01.666Z,9.80
2022-12-05T04:08:37.333Z,9.84
2022-12-05T04:11:11.057Z,9.87
2022-12-05T04:13:47.774Z,9.82
2022-12-05T04:16:37.444Z,9.76
2022-12-05T04:19:18.631Z,9.81
2022-12-05T04:21:52.408Z,9.79
2022-12-05T04:24:47.380Z,9.65
2022-12-05T04:27:22.685Z,9.52
2022-12-05T04:30:02.543Z,9.56
2022-12-05T04:32:39.108Z,9.87
2022-12-05T04:35:13.973Z,9.74
2022-12-05T04:37:44.826Z,9.75
2022-12-05T04:40:26.990Z,9.76
2022-12-05T04:42:56.032Z,9.69
2022-12-05T04:45:25.968Z,9.78
2022-12-05T04:48:01.423Z,9.85
2022-12-05T04:50:32.491Z,9.59
2022-12-05T04:53:01.188Z,9.73
2022-12-05T04:55:39.868Z,9.77
2022-12-05T04:58:11.354Z,9.22
2022-12-05T05:01:14.736Z,9.69
2022-12-05T05:04:07.566Z,9.53
2022-12-05T05:06:40.398Z,9.49
2022-12-05T05:09:11.039Z,9.65
2022-12-05T05:11:38.338Z,9.57
2022-12-05T05:14:10.468Z,9.68
2022-12-05T05:16:38.837Z,9.67
2022-12-05T05:19:11.307Z,9.69
2022-12-05T05:21:40.788Z,9.65
2022-12-05T05:24:09.556Z,9.33
2022-12-05T05:26:41.081Z,9.53
2022-12-05T05:29:08.321Z,9.54
2022-12-05T05:31:35.519Z,9.32
2022-12-05T05:34:09.095Z,9.56
2022-12-05T05:36:38.595Z,9.46
2022-12-05T05:39:09.206Z,9.17
2022-12-05T05:41:36.783Z,9.55
2022-12-05T05:44:06.573Z,9.74
2022-12-05T05:46:35.602Z,9.91
2022-12-05T05:49:02.922Z,9.82
2022-12-05T05:51:30.416Z,9.32
2022-12-05T05:53:59.662Z,9.74
2022-12-05T05:56:26.658Z,9.71
2022-12-05T05:59:02.009Z,9.74
2022-12-05T06:01:29.727Z,9.60
2022-12-05T06:03:58.873Z,9.62
2022-12-05T06:06:25.912Z,9.59
2022-12-05T06:08:52.745Z,9.07
2022-12-05T06:11:44.887Z,9.57
2022-12-05T06:14:11.657Z,9.66
2022-12-05T06:16:38.465Z,9.38
2022-12-05T06:19:07.332Z,9.69
2022-12-05T06:21:33.966Z,9.70
2022-12-05T06:24:00.722Z,9.82
2022-12-05T06:26:30.830Z,9.80
2022-12-05T06:28:58.218Z,9.12
2022-12-05T06:31:28.450Z,9.82
2022-12-05T06:33:55.214Z,9.61
2022-12-05T06:36:22.504Z,9.76
2022-12-05T06:38:49.538Z,9.54
2022-12-05T06:41:19.420Z,9.41
2022-12-05T06:43:47.033Z,9.79
2022-12-05T06:46:16.193Z,9.60
2022-12-05T06:48:43.918Z,9.69
2022-12-05T06:51:16.589Z,10.06
2022-12-05T06:53:47.010Z,10.12
2022-12-05T06:56:16.958Z,10.00
2022-12-05T06:58:50.073Z,9.51
2022-12-05T07:01:39.649Z,10.43
2022-12-05T07:04:20.835Z,10.45
2022-12-05T07:06:53.911Z,11.13
2022-12-05T07:09:23.243Z,11.65
2022-12-05T07:11:51.351Z,11.27
2022-12-05T07:14:45.906Z,11.04
2022-12-05T07:17:05.659Z,9.62
2022-12-05T07:19:38.216Z,10.71
2022-12-05T07:22:06.634Z,10.54
2022-12-05T07:24:36.036Z,10.41
2022-12-05T07:27:02.734Z,10.74
2022-12-05T07:29:29.519Z,12.01
2022-12-05T07:31:56.387Z,12.10
2022-12-05T07:34:23.277Z,11.94
2022-12-05T07:36:50.101Z,11.80
2022-12-05T07:39:16.946Z,11.42
2022-12-05T07:41:43.630Z,11.27
2022-12-05T07:44:12.236Z,10.96
2022-12-05T07:46:40.171Z,10.91
2022-12-05T07:49:07.976Z,10.86
2022-12-05T07:51:35.819Z,10.87
2022-12-05T07:54:04.830Z,10.58
2022-12-05T07:56:36.984Z,10.91
2022-12-05T07:59:03.863Z,11.25
2022-12-05T08:01:33.536Z,11.13
2022-12-05T08:04:00.438Z,11.34
2022-12-05T08:06:30.435Z,11.40
2022-12-05T08:08:57.921Z,11.43
2022-12-05T08:11:32.893Z,11.61
2022-12-05T08:13:59.773Z,11.85
2022-12-05T08:16:31.215Z,11.63
2022-12-05T08:19:03.437Z,11.50
2022-12-05T08:21:30.347Z,11.44
2022-12-05T08:23:59.548Z,11.39
2022-12-05T08:26:31.585Z,11.40
2022-12-05T08:29:08.576Z,11.76
2022-12-05T08:31:43.284Z,11.72
2022-12-05T08:34:12.482Z,11.57
2022-12-05T08:36:42.770Z,11.68
2022-12-05T08:39:15.074Z,11.59
2022-12-05T08:41:42.751Z,11.95
2022-12-05T08:44:10.731Z,11.91
2022-12-05T08:46:39.010Z,11.44
2022-12-05T08:49:06.301Z,11.53
2022-12-05T08:51:33.101Z,11.80
2022-12-05T08:54:08.122Z,11.84
2022-12-05T08:56:34.828Z,11.66
2022-12-05T08:59:05.716Z,11.37
2022-12-05T09:01:37.051Z,11.44
2022-12-05T09:04:06.060Z,11.40
2022-12-05T09:06:34.584Z,11.21
2022-12-05T09:09:08.637Z,11.33
2022-12-05T09:11:37.930Z,11.28
2022-12-05T09:14:05.367Z,11.40
2022-12-05T09:16:37.894Z,10.41
2022-12-05T09:19:05.713Z,11.61
2022-12-05T09:21:36.165Z,10.86
2022-12-05T09:24:03.116Z,11.77
2022-12-05T09:26:30.387Z,11.33
2022-12-05T09:28:58.031Z,11.56
2022-12-05T09:31:29.449Z,11.90
2022-12-05T09:34:03.542Z,11.71
2022-12-05T09:36:31.769Z,11.51
2022-12-05T09:39:05.178Z,11.75
2022-12-05T09:42:02.620Z,11.52
2022-12-05T09:44:48.209Z,11.40
2022-12-05T09:47:18.238Z,11.64
2022-12-05T09:49:53.968Z,10.81
2022-12-05T09:52:41.643Z,11.53
2022-12-05T09:55:14.882Z,11.31
2022-12-05T09:57:50.382Z,11.43
2022-12-05T10:00:17.757Z,11.50
2022-12-05T10:02:48.009Z,11.64
2022-12-05T10:05:44.127Z,11.87
2022-12-05T10:08:36.845Z,11.94
2022-12-05T10:11:15.645Z,11.73
2022-12-05T10:13:58.749Z,11.64
2022-12-05T10:16:32.725Z,11.62
2022-12-05T10:19:07.191Z,11.37
2022-12-05T10:21:45.193Z,11.89
2022-12-05T10:24:34.794Z,11.74
2022-12-05T10:27:07.036Z,11.78
2022-12-05T10:29:46.495Z,11.89
2022-12-05T10:32:28.620Z,11.04
2022-12-05T10:35:05.439Z,11.68
2022-12-05T10:37:36.606Z,11.64
2022-12-05T10:40:17.976Z,11.28
2022-12-05T10:42:53.869Z,10.27
2022-12-05T10:45:25.663Z,10.52
2022-12-05T10:47:57.751Z,11.63
2022-12-05T10:50:36.353Z,10.96
2022-12-05T10:53:05.983Z,11.89
2022-12-05T10:55:37.769Z,10.66
2022-12-05T10:58:17.630Z,12.01
2022-12-05T11:00:48.456Z,11.81
2022-12-05T11:03:26.377Z,11.84
2022-12-05T11:06:02.350Z,11.68
2022-12-05T11:09:02.614Z,11.07
2022-12-05T11:11:23.779Z,11.89
2022-12-05T11:13:53.765Z,11.94
2022-12-05T11:16:28.939Z,11.88
2022-12-05T11:18:55.735Z,11.73
2022-12-05T11:21:23.090Z,11.79
2022-12-05T11:23:56.387Z,10.98
2022-12-05T11:26:29.225Z,12.22
2022-12-05T11:28:56.768Z,12.34
2022-12-05T11:31:28.795Z,12.33
2022-12-05T11:34:13.919Z,12.19
2022-12-05T11:36:46.876Z,12.19
2022-12-05T11:39:14.555Z,12.26
2022-12-05T11:41:55.931Z,11.70
2022-12-05T11:45:08.263Z,12.24
2022-12-05T11:48:00.180Z,12.19
2022-12-05T11:50:36.797Z,12.27
2022-12-05T11:53:41.177Z,12.21
2022-12-05T11:56:42.121Z,12.14
2022-12-05T11:59:47.624Z,12.10
2022-12-05T12:02:48.120Z,12.03
2022-12-05T12:05:24.468Z,11.98
2022-12-05T12:08:19.202Z,11.97
2022-12-05T12:11:09.234Z,11.51
2022-12-05T12:14:04.684Z,11.71
2022-12-05T12:16:57.048Z,11.82
2022-12-05T12:19:26.577Z,11.88
2022-12-05T12:21:53.253Z,11.44
2022-12-05T12:24:44.852Z,11.91
2022-12-05T12:27:20.655Z,12.03
2022-12-05T12:29:59.466Z,12.02
2022-12-05T12:32:43.387Z,12.01
2022-12-05T12:35:22.172Z,12.01
2022-12-05T12:37:58.309Z,11.73
2022-12-05T12:40:40.565Z,11.68
2022-12-05T12:43:53.371Z,11.89
2022-12-05T12:46:59.488Z,11.97
2022-12-05T12:50:08.841Z,11.66
2022-12-05T12:53:08.841Z,11.93
2022-12-05T12:56:13.980Z,12.07
2022-12-05T12:58:54.420Z,12.01
2022-12-05T13:01:39.763Z,11.97
2022-12-05T13:04:13.620Z,12.05
2022-12-05T13:06:46.710Z,11.60
2022-12-05T13:09:46.112Z,11.96
2022-12-05T13:12:21.865Z,11.86
2022-12-05T13:15:20.133Z,12.00
2022-12-05T13:17:54.389Z,11.93
2022-12-05T13:20:28.143Z,12.01
2022-12-05T13:23:03.127Z,11.90
2022-12-05T13:25:36.230Z,11.90
2022-12-05T13:28:06.601Z,11.97
2022-12-05T13:30:56.038Z,12.04
2022-12-05T13:33:26.239Z,12.07
2022-12-05T13:36:21.762Z,11.90
2022-12-05T13:39:21.467Z,11.55
2022-12-05T13:42:14.822Z,11.83
2022-12-05T13:44:51.414Z,11.62
2022-12-05T13:47:51.988Z,11.93
2022-12-05T13:50:46.290Z,11.83
2022-12-05T13:53:37.639Z,11.97
2022-12-05T13:56:26.213Z,12.04
2022-12-05T13:58:59.772Z,12.01
2022-12-05T14:01:52.025Z,11.39
2022-12-05T14:04:48.262Z,11.64
2022-12-05T14:07:42.707Z,11.77
2022-12-05T14:10:13.021Z,10.97
2022-12-05T14:12:45.882Z,11.77
2022-12-05T14:15:26.185Z,11.80
2022-12-05T14:18:24.902Z,11.77
2022-12-05T14:21:42.502Z,11.75
2022-12-05T14:24:20.414Z,11.57
2022-12-05T14:27:19.483Z,11.67
2022-12-05T14:30:16.595Z,11.74
2022-12-05T14:32:44.409Z,11.68
2022-12-05T14:35:20.856Z,11.73
2022-12-05T14:38:01.336Z,11.78
2022-12-05T14:40:37.349Z,10.98
2022-12-05T14:43:43.448Z,11.55
2022-12-05T14:46:33.820Z,11.70
2022-12-05T14:49:40.740Z,11.69
2022-12-05T14:52:25.338Z,11.46
2022-12-05T14:55:14.436Z,11.62
2022-12-05T14:57:50.709Z,11.09
2022-12-05T15:00:23.942Z,11.61
2022-12-05T15:02:55.581Z,11.48
2022-12-05T15:05:33.056Z,11.60
2022-12-05T15:08:04.095Z,11.51
2022-12-05T15:10:39.885Z,11.21
2022-12-05T15:13:18.766Z,11.34
2022-12-05T15:16:15.505Z,11.43
2022-12-05T15:18:52.153Z,11.39
2022-12-05T15:21:23.502Z,11.24
2022-12-05T15:24:01.965Z,11.28
2022-12-05T15:26:50.204Z,11.29
2022-12-05T15:29:17.558Z,11.29
2022-12-05T15:31:54.719Z,11.26
2022-12-05T15:34:45.802Z,11.17
2022-12-05T15:37:16.539Z,10.78
2022-12-05T15:39:58.618Z,11.04
2022-12-05T15:42:42.315Z,11.07
2022-12-05T15:45:22.475Z,10.68
2022-12-05T15:47:59.624Z,11.04
2022-12-05T15:50:52.981Z,11.08
2022-12-05T15:53:39.723Z,10.98
2022-12-05T15:56:40.633Z,11.01
2022-12-05T15:59:21.714Z,10.91
2022-12-05T16:01:58.827Z,10.75
2022-12-05T16:04:42.062Z,10.79
2022-12-05T16:07:15.703Z,10.21
2022-12-05T16:09:44.999Z,10.90
2022-12-05T16:12:26.177Z,10.55
2022-12-05T16:15:03.019Z,10.92
2022-12-05T16:17:40.460Z,10.55
2022-12-05T16:20:25.916Z,10.87
2022-12-05T16:22:55.495Z,10.73
2022-12-05T16:25:28.350Z,10.72
2022-12-05T16:28:01.840Z,10.53
2022-12-05T16:30:30.541Z,10.68
2022-12-05T16:33:06.515Z,10.64
2022-12-05T16:35:40.124Z,10.62
2022-12-05T16:38:12.287Z,10.34
2022-12-05T16:41:00.832Z,10.76
2022-12-05T16:43:36.186Z,10.85
2022-12-05T16:46:13.386Z,10.88
2022-12-05T16:48:42.276Z,10.71
2022-12-05T16:51:16.049Z,10.90
2022-12-05T16:53:52.258Z,10.47
2022-12-05T16:56:21.163Z,10.43
2022-12-05T16:58:48.787Z,10.44
2022-12-05T17:01:22.127Z,10.97
2022-12-05T17:03:51.596Z,10.85
2022-12-05T17:06:18.533Z,10.85
2022-12-05T17:08:45.317Z,10.67
2022-12-05T17:11:21.122Z,10.93
2022-12-05T17:13:50.059Z,10.97
2022-12-05T17:16:21.152Z,10.84
2022-12-05T17:18:47.917Z,10.68
2022-12-05T17:21:17.696Z,10.63
2022-12-05T17:23:47.727Z,10.98
2022-12-05T17:26:17.095Z,11.01
2022-12-05T17:28:44.175Z,10.64
2022-12-05T17:31:16.820Z,10.74
2022-12-05T17:33:44.491Z,10.58
2022-12-05T17:36:11.818Z,10.66
2022-12-05T17:38:38.714Z,10.56
2022-12-05T17:41:07.350Z,10.58
2022-12-05T17:43:37.375Z,10.63
2022-12-05T17:46:04.081Z,10.66
2022-12-05T17:48:30.820Z,10.68
2022-12-05T17:51:00.344Z,10.47
2022-12-05T17:53:27.126Z,10.69
2022-12-05T17:55:54.873Z,10.68
2022-12-05T17:58:24.919Z,10.77
2022-12-05T18:00:52.161Z,10.48
2022-12-05T18:03:22.477Z,10.48
2022-12-05T18:05:49.359Z,10.74
2022-12-05T18:08:17.406Z,10.79
2022-12-05T18:10:50.641Z,10.53
2022-12-05T18:13:18.725Z,10.32
2022-12-05T18:15:48.344Z,10.70
2022-12-05T18:18:17.916Z,10.34
2022-12-05T18:20:45.996Z,10.66
2022-12-05T18:23:15.712Z,10.56
2022-12-05T18:25:43.085Z,10.54
2022-12-05T18:28:09.877Z,10.76
2022-12-05T18:30:36.619Z,10.53
2022-12-05T18:33:03.262Z,10.64
2022-12-05T18:35:42.925Z,10.63
2022-12-05T18:38:13.077Z,10.52
2022-12-05T18:40:42.377Z,10.61
2022-12-05T18:43:13.615Z,10.69
2022-12-05T18:45:41.132Z,10.41
2022-12-05T18:48:31.525Z,10.62
2022-12-05T18:50:55.392Z,10.73
2022-12-05T18:53:22.497Z,10.37
2022-12-05T18:58:54.765Z,10.26
2022-12-05T19:01:31.719Z,10.63
2022-12-05T19:04:04.474Z,9.79
2022-12-05T19:06:34.760Z,9.62
2022-12-05T19:09:06.927Z,10.55
2022-12-05T19:11:36.691Z,10.72
2022-12-05T19:14:10.174Z,10.36
2022-12-05T19:16:37.844Z,10.36
2022-12-05T19:19:12.449Z,10.59
2022-12-05T19:21:39.306Z,10.51
2022-12-05T19:24:08.234Z,10.31
2022-12-05T19:26:38.197Z,9.98
2022-12-05T19:29:14.322Z,10.68
2022-12-05T19:31:41.621Z,10.63
2022-12-05T19:34:08.918Z,10.71
2022-12-05T19:36:39.831Z,10.47
2022-12-05T19:39:19.661Z,10.70
2022-12-05T19:41:47.182Z,10.71
2022-12-05T19:44:17.567Z,10.41
2022-12-05T19:46:45.566Z,10.68
2022-12-05T19:49:17.189Z,10.47
2022-12-05T19:51:44.851Z,10.05
2022-12-05T19:54:13.844Z,10.45
2022-12-05T19:56:41.694Z,10.30
2022-12-05T19:59:11.122Z,10.58
2022-12-05T20:01:40.953Z,10.54
2022-12-05T20:04:16.413Z,10.35
2022-12-05T20:06:45.887Z,10.49
2022-12-05T20:09:16.522Z,10.65
2022-12-05T20:11:50.788Z,10.72
2022-12-05T20:14:22.344Z,10.52
2022-12-05T20:16:51.122Z,10.44
2022-12-05T20:19:18.144Z,10.68
2022-12-05T20:21:44.896Z,10.72
2022-12-05T20:24:11.905Z,10.71
2022-12-05T20:26:45.523Z,10.69
2022-12-05T20:29:13.204Z,10.36
2022-12-05T20:31:46.858Z,10.40
2022-12-05T20:34:14.994Z,10.68
2022-12-05T20:36:47.285Z,10.63
2022-12-05T20:39:18.889Z,10.60
2022-12-05T20:41:49.669Z,10.10
2022-12-05T20:44:19.893Z,10.63
2022-12-05T20:46:55.484Z,10.66
2022-12-05T20:49:22.527Z,9.73
2022-12-05T20:51:51.323Z,10.55
2022-12-05T20:54:20.956Z,10.57
2022-12-05T20:56:49.253Z,10.22
2022-12-05T20:59:16.033Z,10.19
2022-12-05T21:01:53.429Z,10.58
2022-12-05T21:04:20.447Z,10.42
2022-12-05T21:06:59.870Z,10.35
2022-12-05T21:09:28.560Z,10.73
2022-12-05T21:11:56.149Z,10.75
2022-12-05T21:14:25.786Z,10.62
2022-12-05T21:16:56.165Z,10.71
2022-12-05T21:19:26.167Z,10.58
2022-12-05T21:21:57.249Z,10.20
2022-12-05T21:24:25.785Z,10.66
2022-12-05T21:26:55.362Z,10.16
2022-12-05T21:29:22.211Z,10.66
2022-12-05T21:31:54.179Z,10.69
2022-12-05T21:34:21.805Z,10.66
2022-12-05T21:36:48.675Z,10.59
2022-12-05T21:39:15.718Z,10.61
2022-12-05T21:41:42.405Z,10.78
2022-12-05T21:44:09.185Z,10.83
2022-12-05T21:46:35.952Z,10.72
2022-12-05T21:49:02.682Z,10.70
2022-12-05T21:51:29.443Z,10.82
2022-12-05T21:53:56.592Z,10.74
2022-12-05T21:56:23.614Z,10.67
2022-12-05T21:58:50.742Z,10.68
2022-12-05T22:01:32.440Z,10.67
2022-12-05T22:03:59.723Z,10.47
2022-12-05T22:06:26.656Z,10.58
2022-12-05T22:08:56.248Z,10.21
2022-12-05T22:13:51.773Z,10.71
2022-12-05T22:16:20.906Z,10.57
2022-12-05T22:18:49.515Z,10.56
2022-12-05T22:21:21.925Z,10.54
2022-12-05T22:23:52.586Z,10.51
2022-12-05T22:26:25.814Z,10.54
2022-12-05T22:28:56.961Z,10.11
2022-12-05T22:31:24.588Z,10.39
2022-12-05T22:33:51.801Z,10.13
2022-12-05T22:36:21.428Z,10.70
2022-12-05T22:38:51.946Z,10.72
2022-12-05T22:41:27.453Z,10.66
2022-12-05T22:44:02.111Z,10.41
2022-12-05T22:46:29.501Z,10.51
2022-12-05T22:48:57.537Z,10.55
2022-12-05T22:51:27.981Z,10.69
2022-12-05T22:53:57.490Z,10.69
2022-12-05T22:56:26.248Z,10.51
2022-12-05T22:58:57.526Z,10.60
2022-12-05T23:01:26.248Z,10.42
2022-12-05T23:04:00.986Z,10.72
2022-12-05T23:06:31.007Z,10.31
2022-12-05T23:08:58.712Z,10.41
2022-12-05T23:11:26.374Z,10.73
2022-12-05T23:14:01.666Z,10.69
2022-12-05T23:16:38.273Z,10.74
2022-12-05T23:19:08.567Z,10.67
2022-12-05T23:21:38.289Z,10.60
2022-12-05T23:24:10.804Z,10.65
2022-12-05T23:26:40.944Z,10.74
2022-12-05T23:29:07.910Z,10.64
2022-12-05T23:31:34.981Z,10.55
2022-12-05T23:34:03.763Z,10.55
2022-12-05T23:36:32.897Z,10.57
2022-12-05T23:39:02.825Z,10.27
2022-12-05T23:41:34.795Z,10.48
2022-12-05T23:44:01.665Z,10.53
2022-12-05T23:46:28.939Z,10.56
2022-12-05T23:49:06.193Z,10.64
2022-12-05T23:51:34.142Z,10.53
2022-12-05T23:54:02.199Z,10.34
2022-12-05T23:56:38.558Z,9.96
2022-12-05T23:59:07.014Z,10.41
